sensor_id;sensor_type;location;lat;lon;timestamp;P1;durP1;ratioP1;P2;durP2;ratioP2
30378;SDS011;17168;49.164;9.060;2023-02-28T00:04:15;3.90;;;1.60;;
30378;SDS011;17168;49.164;9.060;2023-02-28T09:12:33;8.40;;;3.75;;
30378;SDS011;17168;49.164;9.060;2023-02-28T09:15:10;6.53;;;2.95;;
30378;SDS011;17168;49.164;9.060;2023-02-28T09:17:42;8.13;;;3.92;;
30378;SDS011;17168;49.164;9.060;2023-02-28T09:20:17;9.50;;;4.15;;
30378;SDS011;17168;49.164;9.060;2023-02-28T09:22:49;9.20;;;4.13;;
30378;SDS011;17168;49.164;9.060;2023-02-28T09:25:21;5.97;;;3.15;;
30378;SDS011;17168;49.164;9.060;2023-02-28T09:30:28;7.82;;;3.50;;
30378;SDS011;17168;49.164;9.060;2023-02-28T09:33:00;7.78;;;3.78;;
30378;SDS011;17168;49.164;9.060;2023-02-28T09:35:32;6.60;;;2.35;;
30378;SDS011;17168;49.164;9.060;2023-02-28T09:38:04;8.93;;;4.45;;
30378;SDS011;17168;49.164;9.060;2023-02-28T09:40:37;8.18;;;3.65;;
30378;SDS011;17168;49.164;9.060;2023-02-28T09:43:11;10.60;;;3.85;;
30378;SDS011;17168;49.164;9.060;2023-02-28T09:45:49;8.18;;;3.72;;
30378;SDS011;17168;49.164;9.060;2023-02-28T09:48:32;6.45;;;3.88;;
30378;SDS011;17168;49.164;9.060;2023-02-28T09:53:47;8.50;;;4.28;;
30378;SDS011;17168;49.164;9.060;2023-02-28T10:09:50;7.88;;;4.10;;
30378;SDS011;17168;49.164;9.060;2023-02-28T10:12:27;7.82;;;3.97;;
30378;SDS011;17168;49.164;9.060;2023-02-28T10:15:03;7.15;;;4.30;;
30378;SDS011;17168;49.164;9.060;2023-02-28T10:17:39;8.05;;;4.00;;
30378;SDS011;17168;49.164;9.060;2023-02-28T10:20:25;10.80;;;4.88;;
30378;SDS011;17168;49.164;9.060;2023-02-28T10:23:03;8.07;;;4.70;;
30378;SDS011;17168;49.164;9.060;2023-02-28T10:25:40;7.20;;;5.30;;
30378;SDS011;17168;49.164;9.060;2023-02-28T10:28:24;10.13;;;4.57;;
30378;SDS011;17168;49.164;9.060;2023-02-28T10:33:32;8.13;;;4.25;;
30378;SDS011;17168;49.164;9.060;2023-02-28T10:41:16;8.48;;;3.75;;
30378;SDS011;17168;49.164;9.060;2023-02-28T10:44:12;8.93;;;3.92;;
30378;SDS011;17168;49.164;9.060;2023-02-28T10:46:46;8.88;;;4.70;;
30378;SDS011;17168;49.164;9.060;2023-02-28T10:49:23;9.27;;;4.53;;
30378;SDS011;17168;49.164;9.060;2023-02-28T10:51:57;8.80;;;5.35;;
30378;SDS011;17168;49.164;9.060;2023-02-28T10:54:32;8.25;;;4.40;;
30378;SDS011;17168;49.164;9.060;2023-02-28T10:57:08;9.57;;;4.50;;
30378;SDS011;17168;49.164;9.060;2023-02-28T10:59:49;9.18;;;4.57;;
30378;SDS011;17168;49.164;9.060;2023-02-28T11:02:30;8.52;;;3.78;;
30378;SDS011;17168;49.164;9.060;2023-02-28T11:05:28;10.07;;;4.93;;
30378;SDS011;17168;49.164;9.060;2023-02-28T11:08:03;8.00;;;4.80;;
30378;SDS011;17168;49.164;9.060;2023-02-28T11:26:08;9.80;;;4.20;;
30378;SDS011;17168;49.164;9.060;2023-02-28T11:28:42;10.73;;;6.22;;
30378;SDS011;17168;49.164;9.060;2023-02-28T11:31:18;7.80;;;4.47;;
30378;SDS011;17168;49.164;9.060;2023-02-28T11:57:46;9.73;;;6.35;;
30378;SDS011;17168;49.164;9.060;2023-02-28T12:03:07;11.80;;;6.13;;
30378;SDS011;17168;49.164;9.060;2023-02-28T12:08:35;9.80;;;5.40;;
30378;SDS011;17168;49.164;9.060;2023-02-28T12:11:18;9.87;;;5.53;;
30378;SDS011;17168;49.164;9.060;2023-02-28T12:16:44;11.15;;;6.15;;
30378;SDS011;17168;49.164;9.060;2023-02-28T12:19:28;9.82;;;5.75;;
30378;SDS011;17168;49.164;9.060;2023-02-28T12:28:07;13.40;;;7.18;;
30378;SDS011;17168;49.164;9.060;2023-02-28T12:30:41;9.15;;;5.97;;
30378;SDS011;17168;49.164;9.060;2023-02-28T12:33:21;9.85;;;5.88;;
30378;SDS011;17168;49.164;9.060;2023-02-28T12:35:57;9.35;;;6.32;;
30378;SDS011;17168;49.164;9.060;2023-02-28T12:38:34;10.68;;;6.07;;
30378;SDS011;17168;49.164;9.060;2023-02-28T12:41:14;11.35;;;6.82;;
30378;SDS011;17168;49.164;9.060;2023-02-28T12:43:51;10.68;;;6.65;;
30378;SDS011;17168;49.164;9.060;2023-02-28T12:46:29;9.60;;;5.55;;
30378;SDS011;17168;49.164;9.060;2023-02-28T12:49:06;9.98;;;6.05;;
30378;SDS011;17168;49.164;9.060;2023-02-28T12:51:45;10.88;;;7.03;;
30378;SDS011;17168;49.164;9.060;2023-02-28T12:54:25;10.45;;;6.15;;
30378;SDS011;17168;49.164;9.060;2023-02-28T12:57:11;8.82;;;5.57;;
30378;SDS011;17168;49.164;9.060;2023-02-28T12:59:49;10.32;;;6.65;;
30378;SDS011;17168;49.164;9.060;2023-02-28T13:05:55;11.15;;;7.20;;
30378;SDS011;17168;49.164;9.060;2023-02-28T13:08:41;11.00;;;6.50;;
30378;SDS011;17168;49.164;9.060;2023-02-28T13:11:34;13.13;;;6.53;;
30378;SDS011;17168;49.164;9.060;2023-02-28T13:14:28;8.18;;;5.75;;
30378;SDS011;17168;49.164;9.060;2023-02-28T13:17:10;11.00;;;7.65;;
30378;SDS011;17168;49.164;9.060;2023-02-28T13:19:44;10.88;;;6.60;;
30378;SDS011;17168;49.164;9.060;2023-02-28T13:22:37;10.55;;;6.97;;
30378;SDS011;17168;49.164;9.060;2023-02-28T14:06:49;10.40;;;7.20;;
30378;SDS011;17168;49.164;9.060;2023-02-28T14:09:24;8.93;;;6.45;;
30378;SDS011;17168;49.164;9.060;2023-02-28T14:15:01;11.20;;;6.82;;
30378;SDS011;17168;49.164;9.060;2023-02-28T14:20:12;9.05;;;6.43;;
30378;SDS011;17168;49.164;9.060;2023-02-28T14:25:30;9.02;;;5.93;;
30378;SDS011;17168;49.164;9.060;2023-02-28T14:30:48;10.98;;;6.45;;
30378;SDS011;17168;49.164;9.060;2023-02-28T14:33:26;8.80;;;6.03;;
30378;SDS011;17168;49.164;9.060;2023-02-28T14:36:07;9.90;;;6.65;;
30378;SDS011;17168;49.164;9.060;2023-02-28T14:38:48;13.43;;;6.85;;
30378;SDS011;17168;49.164;9.060;2023-02-28T14:41:29;10.90;;;6.70;;
30378;SDS011;17168;49.164;9.060;2023-02-28T14:44:02;10.05;;;5.95;;
30378;SDS011;17168;49.164;9.060;2023-02-28T14:46:46;9.60;;;6.65;;
30378;SDS011;17168;49.164;9.060;2023-02-28T14:49:20;8.35;;;5.88;;
30378;SDS011;17168;49.164;9.060;2023-02-28T14:52:05;11.32;;;6.50;;
30378;SDS011;17168;49.164;9.060;2023-02-28T14:54:46;10.95;;;6.95;;
30378;SDS011;17168;49.164;9.060;2023-02-28T14:57:24;11.05;;;7.10;;
30378;SDS011;17168;49.164;9.060;2023-02-28T14:59:59;13.25;;;7.47;;
30378;SDS011;17168;49.164;9.060;2023-02-28T15:02:33;10.90;;;7.28;;
30378;SDS011;17168;49.164;9.060;2023-02-28T15:08:10;8.80;;;5.97;;
30378;SDS011;17168;49.164;9.060;2023-02-28T15:10:50;10.35;;;6.80;;
30378;SDS011;17168;49.164;9.060;2023-02-28T15:13:26;10.13;;;6.15;;
30378;SDS011;17168;49.164;9.060;2023-02-28T15:16:08;10.57;;;6.72;;
30378;SDS011;17168;49.164;9.060;2023-02-28T15:18:44;9.65;;;6.55;;
30378;SDS011;17168;49.164;9.060;2023-02-28T15:21:20;8.93;;;5.35;;
30378;SDS011;17168;49.164;9.060;2023-02-28T15:23:56;10.27;;;6.80;;
30378;SDS011;17168;49.164;9.060;2023-02-28T15:26:37;12.55;;;7.20;;
30378;SDS011;17168;49.164;9.060;2023-02-28T15:29:12;9.00;;;5.93;;
30378;SDS011;17168;49.164;9.060;2023-02-28T15:31:48;10.52;;;7.13;;
30378;SDS011;17168;49.164;9.060;2023-02-28T15:40:11;8.68;;;5.72;;
30378;SDS011;17168;49.164;9.060;2023-02-28T15:43:00;9.48;;;6.35;;
30378;SDS011;17168;49.164;9.060;2023-02-28T15:45:37;7.78;;;5.97;;
30378;SDS011;17168;49.164;9.060;2023-02-28T15:48:15;7.20;;;5.30;;
30378;SDS011;17168;49.164;9.060;2023-02-28T15:53:24;9.00;;;5.60;;
30378;SDS011;17168;49.164;9.060;2023-02-28T15:55:58;12.02;;;6.07;;
30378;SDS011;17168;49.164;9.060;2023-02-28T15:58:35;10.35;;;6.45;;
30378;SDS011;17168;49.164;9.060;2023-02-28T16:01:16;10.82;;;6.40;;
30378;SDS011;17168;49.164;9.060;2023-02-28T16:03:51;13.73;;;7.72;;
30378;SDS011;17168;49.164;9.060;2023-02-28T16:06:38;15.73;;;8.15;;
30378;SDS011;17168;49.164;9.060;2023-02-28T16:09:14;8.95;;;6.13;;
30378;SDS011;17168;49.164;9.060;2023-02-28T16:11:48;10.05;;;5.78;;
30378;SDS011;17168;49.164;9.060;2023-02-28T16:14:25;10.40;;;5.90;;
30378;SDS011;17168;49.164;9.060;2023-02-28T16:17:02;10.43;;;7.13;;
30378;SDS011;17168;49.164;9.060;2023-02-28T16:19:35;11.38;;;7.05;;
30378;SDS011;17168;49.164;9.060;2023-02-28T16:32:30;10.88;;;6.20;;
30378;SDS011;17168;49.164;9.060;2023-02-28T16:37:41;10.50;;;6.68;;
30378;SDS011;17168;49.164;9.060;2023-02-28T16:40:13;11.00;;;7.13;;
30378;SDS011;17168;49.164;9.060;2023-02-28T16:42:47;11.05;;;6.55;;
30378;SDS011;17168;49.164;9.060;2023-02-28T16:45:24;13.15;;;7.05;;
30378;SDS011;17168;49.164;9.060;2023-02-28T16:47:58;13.73;;;6.68;;
30378;SDS011;17168;49.164;9.060;2023-02-28T16:50:30;9.95;;;6.43;;
30378;SDS011;17168;49.164;9.060;2023-02-28T16:53:05;10.48;;;6.20;;
30378;SDS011;17168;49.164;9.060;2023-02-28T16:55:37;10.30;;;6.25;;
30378;SDS011;17168;49.164;9.060;2023-02-28T16:58:11;8.73;;;5.60;;
30378;SDS011;17168;49.164;9.060;2023-02-28T17:00:49;10.85;;;5.22;;
30378;SDS011;17168;49.164;9.060;2023-02-28T17:03:22;10.45;;;5.63;;
30378;SDS011;17168;49.164;9.060;2023-02-28T17:06:04;10.85;;;5.78;;
30378;SDS011;17168;49.164;9.060;2023-02-28T17:08:37;10.85;;;6.13;;
30378;SDS011;17168;49.164;9.060;2023-02-28T17:16:17;10.73;;;5.55;;
30378;SDS011;17168;49.164;9.060;2023-02-28T17:18:54;10.02;;;5.72;;
30378;SDS011;17168;49.164;9.060;2023-02-28T17:21:29;12.85;;;6.35;;
30378;SDS011;17168;49.164;9.060;2023-02-28T17:24:01;11.00;;;6.53;;
30378;SDS011;17168;49.164;9.060;2023-02-28T17:31:46;12.10;;;5.57;;
30378;SDS011;17168;49.164;9.060;2023-02-28T17:34:19;10.70;;;5.70;;
30378;SDS011;17168;49.164;9.060;2023-02-28T17:36:51;12.07;;;5.38;;
30378;SDS011;17168;49.164;9.060;2023-02-28T18:04:53;13.07;;;6.35;;
30378;SDS011;17168;49.164;9.060;2023-02-28T18:07:25;13.20;;;5.80;;
30378;SDS011;17168;49.164;9.060;2023-02-28T18:15:01;10.13;;;5.53;;
30378;SDS011;17168;49.164;9.060;2023-02-28T18:17:37;12.65;;;6.00;;
30378;SDS011;17168;49.164;9.060;2023-02-28T18:20:10;12.65;;;6.28;;
30378;SDS011;17168;49.164;9.060;2023-02-28T18:22:42;12.30;;;6.10;;
30378;SDS011;17168;49.164;9.060;2023-02-28T18:27:48;12.60;;;6.75;;
30378;SDS011;17168;49.164;9.060;2023-02-28T18:30:29;13.50;;;6.32;;
30378;SDS011;17168;49.164;9.060;2023-02-28T18:33:06;14.70;;;6.50;;
30378;SDS011;17168;49.164;9.060;2023-02-28T18:40:49;10.07;;;6.25;;
30378;SDS011;17168;49.164;9.060;2023-02-28T19:24:11;10.00;;;5.40;;
30378;SDS011;17168;49.164;9.060;2023-02-28T19:44:29;11.18;;;6.03;;
30378;SDS011;17168;49.164;9.060;2023-02-28T20:02:22;12.57;;;5.60;;
30378;SDS011;17168;49.164;9.060;2023-02-28T20:04:57;10.05;;;5.75;;
30378;SDS011;17168;49.164;9.060;2023-02-28T20:07:31;12.18;;;6.07;;
30378;SDS011;17168;49.164;9.060;2023-02-28T20:10:04;11.38;;;5.70;;
30378;SDS011;17168;49.164;9.060;2023-02-28T20:12:36;12.13;;;6.95;;
30378;SDS011;17168;49.164;9.060;2023-02-28T20:15:09;9.93;;;5.82;;
30378;SDS011;17168;49.164;9.060;2023-02-28T20:17:41;13.02;;;6.10;;
30378;SDS011;17168;49.164;9.060;2023-02-28T20:20:19;11.88;;;6.75;;
30378;SDS011;17168;49.164;9.060;2023-02-28T20:22:51;14.50;;;5.75;;
30378;SDS011;17168;49.164;9.060;2023-02-28T20:25:24;11.80;;;6.75;;
30378;SDS011;17168;49.164;9.060;2023-02-28T20:27:56;12.00;;;6.20;;
30378;SDS011;17168;49.164;9.060;2023-02-28T20:30:28;10.68;;;5.78;;
30378;SDS011;17168;49.164;9.060;2023-02-28T20:33:00;12.02;;;5.80;;
30378;SDS011;17168;49.164;9.060;2023-02-28T20:35:35;11.88;;;6.25;;
30378;SDS011;17168;49.164;9.060;2023-02-28T20:38:08;12.75;;;6.90;;
30378;SDS011;17168;49.164;9.060;2023-02-28T20:40:40;12.95;;;6.13;;
30378;SDS011;17168;49.164;9.060;2023-02-28T20:43:12;12.60;;;6.13;;
30378;SDS011;17168;49.164;9.060;2023-02-28T20:45:49;10.50;;;4.97;;
30378;SDS011;17168;49.164;9.060;2023-02-28T20:48:21;12.68;;;5.82;;
30378;SDS011;17168;49.164;9.060;2023-02-28T20:50:57;10.70;;;6.40;;
30378;SDS011;17168;49.164;9.060;2023-02-28T20:53:30;10.40;;;5.35;;
30378;SDS011;17168;49.164;9.060;2023-02-28T20:56:04;13.77;;;6.40;;
30378;SDS011;17168;49.164;9.060;2023-02-28T20:58:37;11.15;;;6.28;;
30378;SDS011;17168;49.164;9.060;2023-02-28T21:01:11;11.82;;;5.82;;
30378;SDS011;17168;49.164;9.060;2023-02-28T21:03:48;11.40;;;6.50;;
30378;SDS011;17168;49.164;9.060;2023-02-28T21:06:24;10.23;;;5.80;;
30378;SDS011;17168;49.164;9.060;2023-02-28T21:08:59;9.93;;;6.07;;
30378;SDS011;17168;49.164;9.060;2023-02-28T21:11:31;9.70;;;5.47;;
30378;SDS011;17168;49.164;9.060;2023-02-28T21:14:06;10.52;;;5.65;;
30378;SDS011;17168;49.164;9.060;2023-02-28T21:16:39;10.38;;;5.10;;
30378;SDS011;17168;49.164;9.060;2023-02-28T21:19:12;8.70;;;5.28;;
30378;SDS011;17168;49.164;9.060;2023-02-28T21:21:47;12.27;;;5.47;;
30378;SDS011;17168;49.164;9.060;2023-02-28T21:24:19;10.85;;;5.70;;
30378;SDS011;17168;49.164;9.060;2023-02-28T21:26:51;11.93;;;6.57;;
30378;SDS011;17168;49.164;9.060;2023-02-28T21:29:24;13.40;;;5.93;;
30378;SDS011;17168;49.164;9.060;2023-02-28T21:31:56;10.50;;;6.07;;
30378;SDS011;17168;49.164;9.060;2023-02-28T21:34:29;9.60;;;5.75;;
30378;SDS011;17168;49.164;9.060;2023-02-28T21:37:04;9.70;;;5.72;;
30378;SDS011;17168;49.164;9.060;2023-02-28T21:39:38;10.68;;;5.30;;
30378;SDS011;17168;49.164;9.060;2023-02-28T21:44:43;10.63;;;5.13;;
30378;SDS011;17168;49.164;9.060;2023-02-28T21:47:15;9.82;;;5.07;;
30378;SDS011;17168;49.164;9.060;2023-02-28T21:49:47;10.30;;;5.32;;
30378;SDS011;17168;49.164;9.060;2023-02-28T21:52:23;8.93;;;4.93;;
30378;SDS011;17168;49.164;9.060;2023-02-28T21:54:55;12.18;;;6.22;;
30378;SDS011;17168;49.164;9.060;2023-02-28T21:57:27;11.55;;;5.40;;
30378;SDS011;17168;49.164;9.060;2023-02-28T21:59:59;10.60;;;4.75;;
30378;SDS011;17168;49.164;9.060;2023-02-28T22:02:31;10.55;;;5.88;;
30378;SDS011;17168;49.164;9.060;2023-02-28T22:05:03;10.57;;;5.35;;
30378;SDS011;17168;49.164;9.060;2023-02-28T22:07:39;10.82;;;5.60;;
30378;SDS011;17168;49.164;9.060;2023-02-28T22:10:12;12.82;;;6.32;;
30378;SDS011;17168;49.164;9.060;2023-02-28T22:12:44;10.52;;;5.85;;
30378;SDS011;17168;49.164;9.060;2023-02-28T22:30:30;11.98;;;5.63;;
30378;SDS011;17168;49.164;9.060;2023-02-28T22:35:34;11.25;;;5.00;;
30378;SDS011;17168;49.164;9.060;2023-02-28T22:43:13;11.10;;;6.25;;
30378;SDS011;17168;49.164;9.060;2023-02-28T22:48:16;10.60;;;4.72;;
30378;SDS011;17168;49.164;9.060;2023-02-28T23:03:35;12.60;;;5.25;;
30378;SDS011;17168;49.164;9.060;2023-02-28T23:06:12;10.25;;;5.30;;
30378;SDS011;17168;49.164;9.060;2023-02-28T23:08:50;12.43;;;5.97;;
30378;SDS011;17168;49.164;9.060;2023-02-28T23:13:57;10.80;;;5.35;;
30378;SDS011;17168;49.164;9.060;2023-02-28T23:16:30;12.27;;;5.38;;
30378;SDS011;17168;49.164;9.060;2023-02-28T23:19:04;11.65;;;5.75;;
30378;SDS011;17168;49.164;9.060;2023-02-28T23:21:37;14.27;;;6.18;;
30378;SDS011;17168;49.164;9.060;2023-02-28T23:24:14;14.57;;;6.65;;
